createdAt,value
2023-01-23T00:01:26.848Z,101478.47
2023-01-23T00:03:55.412Z,101478.84
2023-01-23T00:06:23.218Z,101490.34
2023-01-23T00:08:50.261Z,101487.97
2023-01-23T00:11:22.996Z,101483.72
2023-01-23T00:13:49.962Z,101483.78
2023-01-23T00:16:20.357Z,101478.72
2023-01-23T00:18:48.296Z,101478.84
2023-01-23T00:21:18.386Z,101479.00
2023-01-23T00:23:48.559Z,101485.22
2023-01-23T00:26:21.091Z,101482.66
2023-01-23T00:28:49.048Z,101480.06
2023-01-23T00:31:21.649Z,101488.75
2023-01-23T00:33:54.659Z,101484.53
2023-01-23T00:36:22.885Z,101487.97
2023-01-23T00:38:50.309Z,101481.06
2023-01-23T00:41:17.365Z,101480.34
2023-01-23T00:43:47.484Z,101488.25
2023-01-23T00:46:14.953Z,101483.75
2023-01-23T00:48:42.039Z,101490.00
2023-01-23T00:51:09.470Z,101478.59
2023-01-23T00:53:36.599Z,101482.19
2023-01-23T00:56:04.246Z,101477.84
2023-01-23T00:58:31.659Z,101481.16
2023-01-23T01:00:58.867Z,101471.63
2023-01-23T01:03:26.301Z,101480.28
2023-01-23T01:05:53.719Z,101477.78
2023-01-23T01:08:20.934Z,101480.34
2023-01-23T01:10:47.850Z,101475.97
2023-01-23T01:13:16.998Z,101479.59
2023-01-23T01:15:44.176Z,101479.44
2023-01-23T01:18:11.320Z,101483.09
2023-01-23T01:20:41.955Z,101480.44
2023-01-23T01:23:09.268Z,101480.44
2023-01-23T01:25:36.761Z,101477.00
2023-01-23T01:28:04.231Z,101479.59
2023-01-23T01:30:31.688Z,101482.06
2023-01-23T01:32:59.215Z,101475.09
2023-01-23T01:35:26.139Z,101472.63
2023-01-23T01:37:53.545Z,101469.94
2023-01-23T01:40:31.764Z,101467.34
2023-01-23T01:43:02.189Z,101476.91
2023-01-23T01:46:06.993Z,101465.56
2023-01-23T01:48:41.564Z,101473.38
2023-01-23T01:51:17.136Z,101470.84
2023-01-23T01:53:47.991Z,101468.03
2023-01-23T01:56:17.631Z,101469.09
2023-01-23T01:58:47.554Z,101470.00
2023-01-23T02:01:14.778Z,101467.41
2023-01-23T02:03:45.369Z,101476.13
2023-01-23T02:06:12.769Z,101469.16
2023-01-23T02:08:55.158Z,101471.78
2023-01-23T02:11:22.478Z,101464.91
2023-01-23T02:13:50.054Z,101468.41
2023-01-23T02:16:24.265Z,101465.72
2023-01-23T02:18:54.928Z,101466.53
2023-01-23T02:21:25.476Z,101463.16
2023-01-23T02:24:05.993Z,101470.97
2023-01-23T02:26:38.360Z,101471.88
2023-01-23T02:29:06.517Z,101476.13
2023-01-23T02:31:44.345Z,101474.44
2023-01-23T02:34:13.073Z,101478.81
2023-01-23T02:36:43.447Z,101481.38
2023-01-23T02:39:16.589Z,101477.16
2023-01-23T02:41:49.611Z,101485.88
2023-01-23T02:44:27.472Z,101486.84
2023-01-23T02:47:03.943Z,101480.59
2023-01-23T02:49:31.602Z,101483.34
2023-01-23T02:51:58.600Z,101485.09
2023-01-23T02:54:26.175Z,101486.91
2023-01-23T02:56:53.395Z,101490.44
2023-01-23T02:59:41.208Z,101495.69
2023-01-23T03:02:08.981Z,101488.69
2023-01-23T03:04:35.927Z,101493.88
2023-01-23T03:07:02.864Z,101486.84
2023-01-23T03:09:30.087Z,101492.16
2023-01-23T03:11:57.022Z,101481.78
2023-01-23T03:14:24.557Z,101485.34
2023-01-23T03:16:54.219Z,101480.13
2023-01-23T03:19:25.512Z,101481.94
2023-01-23T03:21:53.866Z,101481.06
2023-01-23T03:24:21.650Z,101481.97
2023-01-23T03:26:49.956Z,101481.03
2023-01-23T03:29:42.830Z,101487.19
2023-01-23T03:32:13.401Z,101485.28
2023-01-23T03:34:41.641Z,101500.03
2023-01-23T03:37:10.012Z,101485.09
2023-01-23T03:39:56.694Z,101496.47
2023-01-23T03:42:25.259Z,101499.06
2023-01-23T03:44:53.637Z,101497.41
2023-01-23T03:47:26.363Z,101494.81
2023-01-23T03:49:54.730Z,101494.72
2023-01-23T03:52:21.695Z,101494.84
2023-01-23T03:54:48.686Z,101495.41
2023-01-23T03:57:15.717Z,101500.91
2023-01-23T08:02:43.205Z,101673.56
2023-01-23T08:05:10.683Z,101669.03
2023-01-23T08:07:38.201Z,101674.66
2023-01-23T08:10:06.380Z,101669.72
2023-01-23T08:12:33.487Z,101676.06
2023-01-23T08:15:00.905Z,101670.94
2023-01-23T08:17:28.052Z,101689.03
2023-01-23T08:19:55.270Z,101683.72
2023-01-23T08:22:22.525Z,101688.69
2023-01-23T08:24:49.787Z,101696.50
2023-01-23T08:27:16.932Z,101695.50
2023-01-23T08:29:44.077Z,101688.75
2023-01-23T08:32:11.299Z,101685.44
2023-01-23T08:34:38.532Z,101687.59
2023-01-23T08:37:05.846Z,101686.75
2023-01-23T08:39:33.005Z,101688.78
2023-01-23T08:42:00.349Z,101688.94
2023-01-23T08:44:27.501Z,101693.81
2023-01-23T08:46:54.489Z,101691.03
2023-01-23T08:49:21.575Z,101690.28
2023-01-23T08:51:48.622Z,101692.81
2023-01-23T08:54:16.006Z,101694.28
2023-01-23T08:56:43.158Z,101695.16
2023-01-23T08:59:10.380Z,101689.28
2023-01-23T09:01:37.556Z,101695.06
2023-01-23T09:04:05.081Z,101696.69
2023-01-23T09:06:32.433Z,101691.66
2023-01-23T09:08:59.423Z,101696.44
2023-01-23T09:11:26.761Z,101695.16
2023-01-23T09:13:54.215Z,101689.38
2023-01-23T09:16:21.234Z,101686.41
2023-01-23T09:18:48.279Z,101682.94
2023-01-23T09:21:17.551Z,101680.06
2023-01-23T09:23:44.564Z,101678.44
2023-01-23T09:26:13.571Z,101675.81
2023-01-23T09:28:42.986Z,101676.94
2023-01-23T09:31:12.549Z,101671.00
2023-01-23T09:33:39.761Z,101680.81
2023-01-23T09:36:07.748Z,101678.50
2023-01-23T09:38:34.672Z,101670.66
2023-01-23T09:41:09.260Z,101665.03
2023-01-23T09:43:48.585Z,101670.25
2023-01-23T09:46:47.169Z,101665.25
2023-01-23T09:49:20.157Z,101662.00
2023-01-23T09:52:07.811Z,101662.59
2023-01-23T09:54:48.913Z,101662.78
2023-01-23T09:57:20.944Z,101658.22
2023-01-23T10:00:00.383Z,101657.00
2023-01-23T10:02:29.195Z,101657.47
2023-01-23T10:04:58.643Z,101661.97
2023-01-23T10:07:31.403Z,101652.56
2023-01-23T10:10:10.767Z,101653.16
2023-01-23T10:12:49.790Z,101664.25
2023-01-23T10:15:21.507Z,101657.41
2023-01-23T10:18:04.677Z,101651.75
2023-01-23T10:20:48.109Z,101650.84
2023-01-23T10:23:32.351Z,101649.78
2023-01-23T10:26:02.966Z,101652.56
2023-01-23T10:28:35.151Z,101642.59
2023-01-23T10:31:08.726Z,101650.84
2023-01-23T10:34:11.584Z,101651.25
2023-01-23T10:36:54.492Z,101649.00
2023-01-23T10:40:05.450Z,101648.03
2023-01-23T10:42:32.840Z,101646.28
2023-01-23T10:44:59.992Z,101641.91
2023-01-23T10:47:35.675Z,101639.59
2023-01-23T10:50:05.527Z,101640.34
2023-01-23T10:52:35.617Z,101641.63
2023-01-23T10:55:04.859Z,101631.94
2023-01-23T10:57:45.213Z,101636.00
2023-01-23T11:00:33.796Z,101633.66
2023-01-23T11:03:28.309Z,101633.06
2023-01-23T11:06:07.404Z,101638.88
2023-01-23T11:08:37.122Z,101629.75
2023-01-23T11:11:16.286Z,101637.97
2023-01-23T11:13:45.846Z,101624.66
2023-01-23T11:16:22.255Z,101637.09
2023-01-23T11:19:05.792Z,101628.91
2023-01-23T11:22:06.562Z,101631.25
2023-01-23T11:24:41.059Z,101633.72
2023-01-23T11:27:23.757Z,101636.31
2023-01-23T11:29:59.114Z,101637.28
2023-01-23T11:32:26.256Z,101636.38
2023-01-23T11:35:05.217Z,101644.28
2023-01-23T11:37:37.021Z,101636.25
2023-01-23T11:40:13.171Z,101642.00
2023-01-23T11:42:42.531Z,101637.88
2023-01-23T11:45:32.181Z,101636.84
2023-01-23T11:48:34.166Z,101637.91
2023-01-23T11:51:20.030Z,101641.63
2023-01-23T11:53:46.967Z,101639.47
2023-01-23T11:56:36.230Z,101633.66
2023-01-23T11:59:35.731Z,101633.56
2023-01-23T12:02:25.750Z,101628.69
2023-01-23T12:05:27.734Z,101638.34
2023-01-23T12:08:12.990Z,101641.84
2023-01-23T12:11:12.187Z,101633.13
2023-01-23T12:13:52.908Z,101635.81
2023-01-23T12:16:32.034Z,101636.69
2023-01-23T17:57:44.451Z,101707.78
2023-01-23T18:00:16.237Z,101708.56
2023-01-23T18:02:44.264Z,101704.75
2023-01-23T18:05:13.364Z,101708.81
2023-01-23T18:07:53.093Z,101702.16
2023-01-23T18:10:22.554Z,101715.00
2023-01-23T18:13:00.009Z,101704.97
2023-01-23T18:15:42.798Z,101710.44
2023-01-23T18:18:18.662Z,101710.44
2023-01-23T18:20:46.745Z,101710.06
2023-01-23T18:23:14.801Z,101709.16
2023-01-23T18:25:46.214Z,101708.94
2023-01-23T18:28:22.807Z,101714.41
2023-01-23T18:31:00.098Z,101710.19
2023-01-23T18:33:52.641Z,101710.53
2023-01-23T18:36:41.941Z,101708.94
2023-01-23T18:39:40.158Z,101708.03
2023-01-23T18:42:24.937Z,101713.16
2023-01-23T18:45:02.220Z,101709.59
2023-01-23T18:47:30.327Z,101712.78
2023-01-23T18:49:58.043Z,101723.22
2023-01-23T18:52:47.200Z,101718.28
2023-01-23T18:55:51.958Z,101710.91
2023-01-23T18:58:43.660Z,101716.03
2023-01-23T19:01:20.742Z,101717.06
2023-01-23T19:03:50.556Z,101716.25
2023-01-23T19:06:26.193Z,101724.09
2023-01-23T19:08:57.801Z,101717.50
2023-01-23T19:11:54.699Z,101711.06
2023-01-23T19:14:40.334Z,101722.44
2023-01-23T19:17:33.051Z,101728.16
2023-01-23T19:20:17.235Z,101718.09
2023-01-23T19:22:55.762Z,101718.59
2023-01-23T19:25:23.960Z,101716.94
2023-01-23T19:27:56.387Z,101713.44
2023-01-23T19:30:25.648Z,101720.09
2023-01-23T19:32:55.263Z,101721.66
2023-01-23T19:35:23.625Z,101713.59
2023-01-23T19:37:51.412Z,101711.38
2023-01-23T19:40:19.132Z,101711.03
2023-01-23T19:42:58.862Z,101707.91
2023-01-23T19:45:34.771Z,101707.97
2023-01-23T19:48:02.233Z,101711.81
2023-01-23T19:50:29.794Z,101715.59
2023-01-23T19:52:58.859Z,101711.03
2023-01-23T22:06:01.881Z,101699.59
2023-01-23T22:08:29.237Z,101698.22
2023-01-23T22:10:56.373Z,101706.44
2023-01-23T22:13:23.441Z,101696.22
2023-01-23T22:15:50.422Z,101698.78
2023-01-23T22:18:17.437Z,101702.75
2023-01-23T22:20:44.476Z,101702.56
2023-01-23T22:23:11.673Z,101695.97
2023-01-23T22:25:38.934Z,101702.75
2023-01-23T22:28:06.095Z,101698.28
2023-01-23T22:30:33.104Z,101697.78
2023-01-23T22:33:00.214Z,101700.22
2023-01-23T22:35:27.252Z,101701.13
2023-01-23T22:37:54.255Z,101699.56
2023-01-23T22:40:21.648Z,101697.50
2023-01-23T22:42:48.624Z,101696.44
2023-01-23T22:45:15.840Z,101703.75
2023-01-23T22:47:42.833Z,101695.63
2023-01-23T22:50:10.528Z,101705.88
2023-01-23T22:52:37.647Z,101702.22
2023-01-23T22:55:05.013Z,101701.66
2023-01-23T22:57:32.182Z,101704.75
2023-01-23T22:59:59.232Z,101714.13
2023-01-23T23:02:26.459Z,101702.63
2023-01-23T23:04:54.045Z,101707.47
2023-01-23T23:07:21.423Z,101699.75
2023-01-23T23:09:48.744Z,101702.63
2023-01-23T23:12:16.048Z,101708.03
2023-01-23T23:14:43.713Z,101705.97
2023-01-23T23:17:10.842Z,101702.97
2023-01-23T23:19:38.102Z,101714.19
2023-01-23T23:22:06.396Z,101707.91
2023-01-23T23:24:33.752Z,101710.34
2023-01-23T23:27:00.795Z,101705.41
2023-01-23T23:29:27.823Z,101706.94
2023-01-23T23:31:55.085Z,101710.38
2023-01-23T23:34:22.114Z,101709.53
2023-01-23T23:36:49.351Z,101705.63
2023-01-23T23:39:16.452Z,101706.66
2023-01-23T23:41:43.390Z,101692.94
2023-01-23T23:44:10.506Z,101706.59
2023-01-23T23:46:37.518Z,101692.91
2023-01-23T23:49:04.507Z,101694.88
2023-01-23T23:51:31.475Z,101703.25
2023-01-23T23:53:58.449Z,101698.63
2023-01-23T23:56:27.715Z,101702.69
2023-01-23T23:58:55.957Z,101705.41
